JBU634 TJSJ-KBUF
Flight info
| Callsign | JBU634 |
|---|---|
| Flight time | N/A |
| Altitude | 34000 |
| Route | GLADA3 MACOR/M079F340 L455 DUPOX/M079F360 L455 SAVIK/N0457F360 DCT YAALE/N0455F370 Y495 MOUGH/N0460F360 Y495 OWENZ DCT FATON/N0453F370 DCT CCC/N0456F380 DCT IGN DCT RKA DCT GEE |
| Aircraft | A320/M-SDE3FGHIRWY/LB1 |
Departure
| Time | N/A |
|---|---|
| Airport | Luis Munoz Marin International Airport (TJSJ) |
Arrival
| Time | 2026-04-29 04:21 |
|---|---|
| Airport | Buffalo Niagara International Airport (KBUF) |
| Time | Latitude | Longitude | Altitude | Speed | Heading |
|---|---|---|---|---|---|
| 2026-04-29 03:58 | 42.64416 | -76.39438 | 36076 ft | 386 kts | 281° |
| 2026-04-29 03:58 | 42.64947 | -76.43012 | 36076 ft | 386 kts | 281° |
| 2026-04-29 03:59 | 42.66005 | -76.50160 | 35921 ft | 386 kts | 281° |
| 2026-04-29 03:59 | 42.66531 | -76.53717 | 35686 ft | 382 kts | 281° |
| 2026-04-29 03:59 | 42.67050 | -76.57249 | 35356 ft | 380 kts | 281° |
| 2026-04-29 04:00 | 42.67562 | -76.60775 | 34706 ft | 380 kts | 281° |
| 2026-04-29 04:00 | 42.68077 | -76.64299 | 33993 ft | 381 kts | 281° |
| 2026-04-29 04:00 | 42.68594 | -76.67829 | 33188 ft | 380 kts | 281° |
| 2026-04-29 04:00 | 42.69108 | -76.71350 | 32442 ft | 379 kts | 281° |
| 2026-04-29 04:01 | 42.69620 | -76.74873 | 31645 ft | 380 kts | 282° |
| 2026-04-29 04:01 | 42.70132 | -76.78401 | 30919 ft | 380 kts | 282° |
| 2026-04-29 04:01 | 42.70639 | -76.81925 | 30227 ft | 379 kts | 282° |
| 2026-04-29 04:01 | 42.71133 | -76.85371 | 29721 ft | 373 kts | 282° |
| 2026-04-29 04:02 | 42.71627 | -76.88808 | 29222 ft | 368 kts | 281° |
| 2026-04-29 04:02 | 42.72116 | -76.92191 | 28726 ft | 362 kts | 281° |
| 2026-04-29 04:02 | 42.72597 | -76.95530 | 28231 ft | 357 kts | 281° |
| 2026-04-29 04:02 | 42.73069 | -76.98826 | 27741 ft | 353 kts | 281° |
| 2026-04-29 04:03 | 42.73537 | -77.02093 | 27259 ft | 351 kts | 281° |
| 2026-04-29 04:03 | 42.74003 | -77.05349 | 26766 ft | 350 kts | 281° |
| 2026-04-29 04:03 | 42.74465 | -77.08603 | 26288 ft | 350 kts | 280° |
| 2026-04-29 04:03 | 42.74925 | -77.11856 | 25804 ft | 350 kts | 280° |
| 2026-04-29 04:04 | 42.75382 | -77.15108 | 25320 ft | 350 kts | 280° |
| 2026-04-29 04:04 | 42.75838 | -77.18361 | 24840 ft | 351 kts | 280° |
| 2026-04-29 04:04 | 42.76298 | -77.21625 | 24358 ft | 351 kts | 279° |
| 2026-04-29 04:04 | 42.76757 | -77.24895 | 23879 ft | 352 kts | 279° |
| 2026-04-29 04:05 | 42.77216 | -77.28174 | 23358 ft | 353 kts | 279° |
| 2026-04-29 04:05 | 42.77676 | -77.31452 | 22879 ft | 352 kts | 279° |
| 2026-04-29 04:05 | 42.78132 | -77.34708 | 22436 ft | 349 kts | 278° |
| 2026-04-29 04:05 | 42.78585 | -77.37948 | 21982 ft | 347 kts | 278° |
| 2026-04-29 04:06 | 42.79033 | -77.41167 | 21542 ft | 345 kts | 278° |
| 2026-04-29 04:06 | 42.79477 | -77.44364 | 21112 ft | 343 kts | 278° |
| 2026-04-29 04:06 | 42.79917 | -77.47543 | 20695 ft | 341 kts | 278° |
| 2026-04-29 04:06 | 42.80353 | -77.50705 | 20277 ft | 339 kts | 278° |
| 2026-04-29 04:07 | 42.80787 | -77.53850 | 19844 ft | 337 kts | 278° |
| 2026-04-29 04:07 | 42.81218 | -77.56980 | 19414 ft | 335 kts | 278° |
| 2026-04-29 04:07 | 42.81643 | -77.60092 | 18993 ft | 334 kts | 277° |
| 2026-04-29 04:07 | 42.82063 | -77.63189 | 18549 ft | 332 kts | 277° |
| 2026-04-29 04:08 | 42.82481 | -77.66269 | 18056 ft | 330 kts | 277° |
| 2026-04-29 04:08 | 42.82901 | -77.69333 | 17598 ft | 328 kts | 277° |
| 2026-04-29 04:08 | 42.83339 | -77.72374 | 17093 ft | 327 kts | 281° |
| 2026-04-29 04:08 | 42.84090 | -77.75309 | 16592 ft | 329 kts | 290° |
| 2026-04-29 04:09 | 42.85014 | -77.78164 | 16083 ft | 329 kts | 290° |
| 2026-04-29 04:09 | 42.85931 | -77.81015 | 15563 ft | 328 kts | 290° |
| 2026-04-29 04:09 | 42.86845 | -77.83868 | 15028 ft | 328 kts | 290° |
| 2026-04-29 04:09 | 42.87756 | -77.86718 | 14500 ft | 328 kts | 290° |
| 2026-04-29 04:10 | 42.88668 | -77.89571 | 13992 ft | 328 kts | 290° |
| 2026-04-29 04:10 | 42.89576 | -77.92421 | 13434 ft | 328 kts | 290° |
| 2026-04-29 04:10 | 42.90484 | -77.95269 | 12896 ft | 327 kts | 290° |
| 2026-04-29 04:10 | 42.91387 | -77.98101 | 12368 ft | 325 kts | 290° |
| 2026-04-29 04:11 | 42.92285 | -78.00921 | 11839 ft | 323 kts | 290° |
| 2026-04-29 04:11 | 42.93177 | -78.03730 | 11313 ft | 322 kts | 291° |
| 2026-04-29 04:11 | 42.94065 | -78.06527 | 10789 ft | 321 kts | 291° |
| 2026-04-29 04:11 | 42.94945 | -78.09297 | 10515 ft | 312 kts | 291° |
| 2026-04-29 04:12 | 42.95791 | -78.11960 | 10392 ft | 300 kts | 291° |
| 2026-04-29 04:12 | 42.96593 | -78.14481 | 10197 ft | 280 kts | 291° |
| 2026-04-29 04:12 | 42.97355 | -78.16876 | 9826 ft | 269 kts | 291° |
| 2026-04-29 04:12 | 42.98095 | -78.19212 | 9682 ft | 271 kts | 291° |
| 2026-04-29 04:13 | 42.98838 | -78.21569 | 9564 ft | 270 kts | 291° |
| 2026-04-29 04:13 | 42.99579 | -78.23926 | 9305 ft | 272 kts | 291° |
| 2026-04-29 04:13 | 43.00332 | -78.26322 | 8873 ft | 273 kts | 291° |
| 2026-04-29 04:13 | 43.01076 | -78.28692 | 8546 ft | 271 kts | 291° |
| 2026-04-29 04:14 | 43.01818 | -78.31053 | 8185 ft | 270 kts | 290° |
| 2026-04-29 04:14 | 43.02558 | -78.33401 | 7808 ft | 267 kts | 290° |
| 2026-04-29 04:14 | 43.03292 | -78.35726 | 7266 ft | 265 kts | 290° |
| 2026-04-29 04:14 | 43.04019 | -78.38036 | 6665 ft | 264 kts | 290° |
| 2026-04-29 04:15 | 43.04743 | -78.40348 | 5965 ft | 266 kts | 291° |
| 2026-04-29 04:15 | 43.05468 | -78.42673 | 5363 ft | 263 kts | 291° |
| 2026-04-29 04:15 | 43.06164 | -78.44899 | 5148 ft | 246 kts | 291° |
| 2026-04-29 04:15 | 43.06810 | -78.46959 | 5025 ft | 226 kts | 290° |
| 2026-04-29 04:16 | 43.07409 | -78.48865 | 4934 ft | 213 kts | 290° |
| 2026-04-29 04:16 | 43.07981 | -78.50701 | 4845 ft | 211 kts | 290° |
| 2026-04-29 04:16 | 43.08263 | -78.52590 | 4746 ft | 197 kts | 266° |
| 2026-04-29 04:16 | 43.07943 | -78.54355 | 4584 ft | 192 kts | 244° |
| 2026-04-29 04:17 | 43.07087 | -78.55789 | 4183 ft | 199 kts | 226° |
| 2026-04-29 04:17 | 43.06095 | -78.57093 | 3896 ft | 196 kts | 227° |
| 2026-04-29 04:17 | 43.05130 | -78.58364 | 3597 ft | 188 kts | 227° |
| 2026-04-29 04:17 | 43.04223 | -78.59558 | 3358 ft | 174 kts | 227° |
| 2026-04-29 04:18 | 43.03381 | -78.60668 | 3132 ft | 160 kts | 227° |
| 2026-04-29 04:18 | 43.02633 | -78.61652 | 2936 ft | 141 kts | 228° |
| 2026-04-29 04:18 | 43.01944 | -78.62562 | 2755 ft | 135 kts | 228° |
| 2026-04-29 04:18 | 43.01274 | -78.63446 | 2573 ft | 133 kts | 227° |
| 2026-04-29 04:19 | 43.00610 | -78.64321 | 2404 ft | 132 kts | 226° |
| 2026-04-29 04:19 | 42.99946 | -78.65196 | 2222 ft | 132 kts | 227° |
| 2026-04-29 04:19 | 42.99285 | -78.66066 | 2043 ft | 132 kts | 227° |
| 2026-04-29 04:19 | 42.98622 | -78.66939 | 1865 ft | 136 kts | 225° |
| 2026-04-29 04:20 | 42.97947 | -78.67826 | 1679 ft | 136 kts | 225° |
| 2026-04-29 04:20 | 42.97273 | -78.68710 | 1487 ft | 133 kts | 223° |
| 2026-04-29 04:20 | 42.96599 | -78.69590 | 1288 ft | 132 kts | 223° |
| 2026-04-29 04:20 | 42.95939 | -78.70454 | 1127 ft | 132 kts | 223° |
| 2026-04-29 04:21 | 42.95278 | -78.71317 | 902 ft | 130 kts | 225° |
| 2026-04-29 04:21 | 42.94633 | -78.72176 | 741 ft | 130 kts | 224° |
| 2026-04-29 04:21 | 42.94057 | -78.72941 | 712 ft | 86 kts | 224° |
| 2026-04-29 04:21 | 42.93833 | -78.73236 | 719 ft | 18 kts | 224° |
| 2026-04-29 04:22 | 42.93748 | -78.73282 | 721 ft | 11 kts | 178° |
| 2026-04-29 04:22 | 42.93693 | -78.73280 | 721 ft | 6 kts | 179° |
| 2026-04-29 04:22 | 42.93646 | -78.73284 | 718 ft | 9 kts | 200° |
| 2026-04-29 04:22 | 42.93611 | -78.73322 | 716 ft | 3 kts | 219° |
| 2026-04-29 04:23 | 42.93586 | -78.73350 | 716 ft | 6 kts | 219° |
| 2026-04-29 04:23 | 42.93557 | -78.73362 | 716 ft | 3 kts | 137° |
| 2026-04-29 04:23 | 42.93529 | -78.73314 | 712 ft | 8 kts | 121° |
| 2026-04-29 04:23 | 42.93503 | -78.73272 | 715 ft | 7 kts | 136° |
| 2026-04-29 04:24 | 42.93490 | -78.73253 | 709 ft | 1 kts | 133° |
| 2026-04-29 04:24 | 42.93488 | -78.73250 | 709 ft | 0 kts | 133° |